sensor_id;sensor_type;location;lat;lon;timestamp;pressure;altitude;pressure_sealevel;temperature;humidity
29569;BME280;16501;51.462;14.346;2022-12-20T00:00:14;100714.06;;;0.18;100.00
29569;BME280;16501;51.462;14.346;2022-12-20T00:02:40;100669.50;;;-0.02;100.00
29569;BME280;16501;51.462;14.346;2022-12-20T00:05:06;100659.59;;;-0.21;100.00
29569;BME280;16501;51.462;14.346;2022-12-20T00:07:33;100726.66;;;0.23;100.00
29569;BME280;16501;51.462;14.346;2022-12-20T00:10:00;100690.00;;;-0.03;100.00
29569;BME280;16501;51.462;14.346;2022-12-20T00:12:26;100702.19;;;0.03;100.00
29569;BME280;16501;51.462;14.346;2022-12-20T00:14:51;100708.56;;;0.18;100.00
29569;BME280;16501;51.462;14.346;2022-12-20T00:17:16;100668.31;;;-0.01;100.00
29569;BME280;16501;51.462;14.346;2022-12-20T00:19:44;100661.22;;;-0.09;100.00
29569;BME280;16501;51.462;14.346;2022-12-20T00:22:11;100677.41;;;0.10;100.00
29569;BME280;16501;51.462;14.346;2022-12-20T00:24:36;100694.75;;;0.18;100.00
29569;BME280;16501;51.462;14.346;2022-12-20T00:27:01;100632.03;;;-0.21;100.00
29569;BME280;16501;51.462;14.346;2022-12-20T00:29:27;100666.75;;;-0.02;100.00
29569;BME280;16501;51.462;14.346;2022-12-20T00:31:52;100667.13;;;-0.04;100.00
29569;BME280;16501;51.462;14.346;2022-12-20T00:34:19;100704.59;;;0.23;100.00
29569;BME280;16501;51.462;14.346;2022-12-20T00:36:45;100710.94;;;0.23;100.00
29569;BME280;16501;51.462;14.346;2022-12-20T00:39:10;100726.28;;;0.21;100.00
29569;BME280;16501;51.462;14.346;2022-12-20T00:41:36;100674.63;;;0.03;100.00
29569;BME280;16501;51.462;14.346;2022-12-20T00:44:02;100658.84;;;-0.04;100.00
29569;BME280;16501;51.462;14.346;2022-12-20T00:46:28;100673.84;;;0.06;100.00
29569;BME280;16501;51.462;14.346;2022-12-20T00:48:54;100659.28;;;-0.05;100.00
29569;BME280;16501;51.462;14.346;2022-12-20T00:51:26;100695.16;;;0.20;100.00
29569;BME280;16501;51.462;14.346;2022-12-20T00:53:52;100657.28;;;-0.05;100.00
29569;BME280;16501;51.462;14.346;2022-12-20T00:56:17;100674.63;;;0.07;100.00
29569;BME280;16501;51.462;14.346;2022-12-20T00:58:43;100674.25;;;0.15;100.00
29569;BME280;16501;51.462;14.346;2022-12-20T01:01:19;100687.28;;;0.18;100.00
29569;BME280;16501;51.462;14.346;2022-12-20T01:03:44;100654.94;;;-0.06;100.00
29569;BME280;16501;51.462;14.346;2022-12-20T01:06:10;100649.81;;;0.03;100.00
29569;BME280;16501;51.462;14.346;2022-12-20T01:08:36;100680.59;;;0.16;100.00
29569;BME280;16501;51.462;14.346;2022-12-20T01:11:05;100671.09;;;0.13;100.00
29569;BME280;16501;51.462;14.346;2022-12-20T01:13:32;100663.59;;;0.07;100.00
29569;BME280;16501;51.462;14.346;2022-12-20T01:16:13;100668.38;;;0.28;100.00
29569;BME280;16501;51.462;14.346;2022-12-20T01:18:39;100640.78;;;0.13;100.00
29569;BME280;16501;51.462;14.346;2022-12-20T01:21:10;100659.69;;;0.29;100.00
29569;BME280;16501;51.462;14.346;2022-12-20T01:23:36;100643.13;;;0.08;100.00
29569;BME280;16501;51.462;14.346;2022-12-20T01:26:03;100657.72;;;0.19;100.00
29569;BME280;16501;51.462;14.346;2022-12-20T01:28:30;100651.03;;;0.24;100.00
29569;BME280;16501;51.462;14.346;2022-12-20T01:30:56;100638.41;;;0.19;100.00
29569;BME280;16501;51.462;14.346;2022-12-20T01:33:21;100599.81;;;0.01;100.00
29569;BME280;16501;51.462;14.346;2022-12-20T01:36:01;100648.28;;;0.42;100.00
29569;BME280;16501;51.462;14.346;2022-12-20T01:38:28;100657.38;;;0.42;100.00
29569;BME280;16501;51.462;14.346;2022-12-20T01:40:54;100588.00;;;0.08;100.00
29569;BME280;16501;51.462;14.346;2022-12-20T01:43:21;100613.59;;;0.15;100.00
29569;BME280;16501;51.462;14.346;2022-12-20T01:45:47;100624.22;;;0.24;100.00
29569;BME280;16501;51.462;14.346;2022-12-20T01:48:17;100657.38;;;0.46;100.00
29569;BME280;16501;51.462;14.346;2022-12-20T01:50:46;100662.06;;;0.45;100.00
29569;BME280;16501;51.462;14.346;2022-12-20T01:53:13;100654.59;;;0.46;100.00
29569;BME280;16501;51.462;14.346;2022-12-20T01:55:40;100608.50;;;0.17;100.00
29569;BME280;16501;51.462;14.346;2022-12-20T01:58:08;100623.84;;;0.29;100.00
29569;BME280;16501;51.462;14.346;2022-12-20T02:00:36;100640.00;;;0.34;100.00
29569;BME280;16501;51.462;14.346;2022-12-20T02:03:05;100652.63;;;0.43;100.00
29569;BME280;16501;51.462;14.346;2022-12-20T02:05:36;100597.44;;;0.10;100.00
29569;BME280;16501;51.462;14.346;2022-12-20T02:08:03;100653.41;;;0.47;100.00
29569;BME280;16501;51.462;14.346;2022-12-20T02:10:55;100646.72;;;0.33;100.00
29569;BME280;16501;51.462;14.346;2022-12-20T02:15:58;100658.13;;;0.57;100.00
29569;BME280;16501;51.462;14.346;2022-12-20T02:18:41;100598.25;;;0.22;100.00
29569;BME280;16501;51.462;14.346;2022-12-20T02:23:54;100626.97;;;0.74;100.00
29569;BME280;16501;51.462;14.346;2022-12-20T02:27:00;100584.44;;;0.43;100.00
29569;BME280;16501;51.462;14.346;2022-12-20T02:29:37;100591.16;;;0.49;100.00
29569;BME280;16501;51.462;14.346;2022-12-20T02:34:34;100601.00;;;0.58;100.00
29569;BME280;16501;51.462;14.346;2022-12-20T02:37:00;100640.38;;;0.76;100.00
29569;BME280;16501;51.462;14.346;2022-12-20T02:39:28;100624.22;;;0.64;100.00
29569;BME280;16501;51.462;14.346;2022-12-20T02:42:00;100621.09;;;0.62;100.00
29569;BME280;16501;51.462;14.346;2022-12-20T02:44:30;100579.72;;;0.36;100.00
29569;BME280;16501;51.462;14.346;2022-12-20T02:47:21;100595.06;;;0.52;100.00
29569;BME280;16501;51.462;14.346;2022-12-20T02:49:51;100619.91;;;0.73;100.00
29569;BME280;16501;51.462;14.346;2022-12-20T02:52:20;100554.88;;;0.29;100.00
29569;BME280;16501;51.462;14.346;2022-12-20T02:54:47;100624.63;;;0.66;100.00
29569;BME280;16501;51.462;14.346;2022-12-20T02:57:17;100634.47;;;0.74;100.00
29569;BME280;16501;51.462;14.346;2022-12-20T02:59:56;100621.84;;;0.69;100.00
29569;BME280;16501;51.462;14.346;2022-12-20T03:02:23;100573.41;;;0.40;100.00
29569;BME280;16501;51.462;14.346;2022-12-20T03:04:50;100594.69;;;0.53;100.00
29569;BME280;16501;51.462;14.346;2022-12-20T03:07:16;100593.91;;;0.53;100.00
29569;BME280;16501;51.462;14.346;2022-12-20T03:09:43;100636.84;;;0.79;100.00
29569;BME280;16501;51.462;14.346;2022-12-20T03:12:11;100617.50;;;0.79;100.00
29569;BME280;16501;51.462;14.346;2022-12-20T03:14:40;100592.28;;;0.59;100.00
29569;BME280;16501;51.462;14.346;2022-12-20T03:17:06;100605.69;;;0.75;100.00
29569;BME280;16501;51.462;14.346;2022-12-20T03:19:33;100595.06;;;0.59;100.00
29569;BME280;16501;51.462;14.346;2022-12-20T03:21:58;100579.72;;;0.54;100.00
29569;BME280;16501;51.462;14.346;2022-12-20T03:24:24;100567.09;;;0.46;100.00
29569;BME280;16501;51.462;14.346;2022-12-20T03:26:50;100537.56;;;0.22;100.00
29569;BME280;16501;51.462;14.346;2022-12-20T03:29:16;100589.16;;;0.61;100.00
29569;BME280;16501;51.462;14.346;2022-12-20T03:31:41;100598.22;;;0.68;100.00
29569;BME280;16501;51.462;14.346;2022-12-20T03:34:08;100595.84;;;0.67;100.00
29569;BME280;16501;51.462;14.346;2022-12-20T03:36:33;100537.94;;;0.42;100.00
29569;BME280;16501;51.462;14.346;2022-12-20T03:38:59;100591.50;;;0.73;100.00
29569;BME280;16501;51.462;14.346;2022-12-20T03:41:25;100560.41;;;0.54;100.00
29569;BME280;16501;51.462;14.346;2022-12-20T03:43:51;100560.00;;;0.60;100.00
29569;BME280;16501;51.462;14.346;2022-12-20T03:46:16;100529.66;;;0.38;100.00
29569;BME280;16501;51.462;14.346;2022-12-20T03:48:42;100569.06;;;0.60;100.00
29569;BME280;16501;51.462;14.346;2022-12-20T03:51:08;100583.22;;;0.73;100.00
29569;BME280;16501;51.462;14.346;2022-12-20T03:53:33;100584.41;;;0.68;100.00
29569;BME280;16501;51.462;14.346;2022-12-20T03:55:59;100547.41;;;0.37;100.00
29569;BME280;16501;51.462;14.346;2022-12-20T03:58:24;100570.66;;;0.58;100.00
29569;BME280;16501;51.462;14.346;2022-12-20T04:00:49;100577.72;;;0.62;100.00
29569;BME280;16501;51.462;14.346;2022-12-20T04:03:15;100590.72;;;0.69;100.00
29569;BME280;16501;51.462;14.346;2022-12-20T04:05:40;100555.69;;;0.44;100.00
29569;BME280;16501;51.462;14.346;2022-12-20T04:08:06;100585.22;;;0.54;100.00
29569;BME280;16501;51.462;14.346;2022-12-20T04:10:31;100551.75;;;0.24;100.00
29569;BME280;16501;51.462;14.346;2022-12-20T04:12:57;100594.28;;;0.51;100.00
29569;BME280;16501;51.462;14.346;2022-12-20T04:15:22;100558.06;;;0.35;100.00
29569;BME280;16501;51.462;14.346;2022-12-20T04:17:47;100526.53;;;0.18;100.00
29569;BME280;16501;51.462;14.346;2022-12-20T04:20:14;100574.59;;;0.42;100.00
29569;BME280;16501;51.462;14.346;2022-12-20T04:22:49;100595.88;;;0.60;100.00
29569;BME280;16501;51.462;14.346;2022-12-20T04:25:17;100595.06;;;0.59;100.00
29569;BME280;16501;51.462;14.346;2022-12-20T04:27:43;100603.75;;;0.50;100.00
29569;BME280;16501;51.462;14.346;2022-12-20T04:30:11;100594.69;;;0.50;100.00
29569;BME280;16501;51.462;14.346;2022-12-20T04:32:38;100558.84;;;0.32;100.00
29569;BME280;16501;51.462;14.346;2022-12-20T04:35:04;100578.53;;;0.48;100.00
29569;BME280;16501;51.462;14.346;2022-12-20T04:37:44;100502.13;;;-0.02;100.00
29569;BME280;16501;51.462;14.346;2022-12-20T04:40:10;100586.78;;;0.52;100.00
29569;BME280;16501;51.462;14.346;2022-12-20T04:42:36;100590.34;;;0.52;100.00
29569;BME280;16501;51.462;14.346;2022-12-20T04:45:01;100587.19;;;0.54;100.00
29569;BME280;16501;51.462;14.346;2022-12-20T04:47:28;100572.22;;;0.51;100.00
29569;BME280;16501;51.462;14.346;2022-12-20T04:49:53;100555.69;;;0.37;100.00
29569;BME280;16501;51.462;14.346;2022-12-20T04:52:19;100538.34;;;0.33;100.00
29569;BME280;16501;51.462;14.346;2022-12-20T04:55:04;100584.81;;;0.67;100.00
29569;BME280;16501;51.462;14.346;2022-12-20T04:57:29;100528.13;;;0.30;100.00
29569;BME280;16501;51.462;14.346;2022-12-20T04:59:55;100505.66;;;0.21;100.00
29569;BME280;16501;51.462;14.346;2022-12-20T05:02:21;100541.50;;;0.39;100.00
29569;BME280;16501;51.462;14.346;2022-12-20T05:04:46;100552.53;;;0.42;100.00
29569;BME280;16501;51.462;14.346;2022-12-20T05:07:11;100571.41;;;0.69;100.00
29569;BME280;16501;51.462;14.346;2022-12-20T05:09:36;100581.66;;;0.68;100.00
29569;BME280;16501;51.462;14.346;2022-12-20T05:12:02;100535.16;;;0.45;100.00
29569;BME280;16501;51.462;14.346;2022-12-20T05:14:27;100563.53;;;0.64;100.00
29569;BME280;16501;51.462;14.346;2022-12-20T05:16:55;100552.91;;;0.51;100.00
29569;BME280;16501;51.462;14.346;2022-12-20T05:19:20;100562.38;;;0.58;100.00
29569;BME280;16501;51.462;14.346;2022-12-20T05:21:46;100626.19;;;0.74;100.00
29569;BME280;16501;51.462;14.346;2022-12-20T05:24:30;100569.81;;;0.61;100.00
29569;BME280;16501;51.462;14.346;2022-12-20T05:27:14;100599.78;;;0.73;100.00
29569;BME280;16501;51.462;14.346;2022-12-20T05:29:39;100571.03;;;0.60;100.00
29569;BME280;16501;51.462;14.346;2022-12-20T05:32:04;100570.63;;;0.65;100.00
29569;BME280;16501;51.462;14.346;2022-12-20T05:34:31;100568.63;;;0.69;100.00
29569;BME280;16501;51.462;14.346;2022-12-20T05:36:57;100542.25;;;0.57;100.00
29569;BME280;16501;51.462;14.346;2022-12-20T05:39:26;100580.88;;;0.75;100.00
29569;BME280;16501;51.462;14.346;2022-12-20T05:41:52;100549.75;;;0.56;100.00
29569;BME280;16501;51.462;14.346;2022-12-20T05:44:18;100561.16;;;0.66;100.00
29569;BME280;16501;51.462;14.346;2022-12-20T05:46:44;100544.22;;;0.60;100.00
29569;BME280;16501;51.462;14.346;2022-12-20T05:49:09;100570.22;;;0.73;100.00
29569;BME280;16501;51.462;14.346;2022-12-20T05:51:35;100508.00;;;0.47;100.00
29569;BME280;16501;51.462;14.346;2022-12-20T05:54:01;100556.81;;;0.68;100.00
29569;BME280;16501;51.462;14.346;2022-12-20T05:56:28;100541.06;;;0.62;100.00
29569;BME280;16501;51.462;14.346;2022-12-20T05:58:54;100495.78;;;0.34;100.00
29569;BME280;16501;51.462;14.346;2022-12-20T06:01:22;100545.78;;;0.65;100.00
29569;BME280;16501;51.462;14.346;2022-12-20T06:03:47;100528.84;;;0.52;100.00
29569;BME280;16501;51.462;14.346;2022-12-20T06:06:12;100557.97;;;0.78;100.00
29569;BME280;16501;51.462;14.346;2022-12-20T06:08:41;100560.34;;;0.76;100.00
29569;BME280;16501;51.462;14.346;2022-12-20T06:11:06;100578.84;;;0.83;100.00
29569;BME280;16501;51.462;14.346;2022-12-20T06:13:32;100583.56;;;0.97;100.00
29569;BME280;16501;51.462;14.346;2022-12-20T06:15:57;100538.25;;;0.72;100.00
29569;BME280;16501;51.462;14.346;2022-12-20T06:18:24;100513.88;;;0.56;100.00
29569;BME280;16501;51.462;14.346;2022-12-20T06:20:50;100563.06;;;0.98;100.00
29569;BME280;16501;51.462;14.346;2022-12-20T06:23:16;100529.22;;;0.72;100.00
29569;BME280;16501;51.462;14.346;2022-12-20T06:25:42;100565.81;;;0.90;100.00
29569;BME280;16501;51.462;14.346;2022-12-20T06:28:09;100528.00;;;0.73;100.00
29569;BME280;16501;51.462;14.346;2022-12-20T06:30:34;100563.47;;;0.85;100.00
29569;BME280;16501;51.462;14.346;2022-12-20T06:33:00;100565.03;;;0.93;100.00
29569;BME280;16501;51.462;14.346;2022-12-20T06:35:26;100550.06;;;0.87;100.00
29569;BME280;16501;51.462;14.346;2022-12-20T06:37:51;100539.84;;;0.77;100.00
29569;BME280;16501;51.462;14.346;2022-12-20T06:40:18;100557.53;;;0.90;100.00
29569;BME280;16501;51.462;14.346;2022-12-20T06:42:43;100526.41;;;0.83;100.00
29569;BME280;16501;51.462;14.346;2022-12-20T06:45:09;100483.09;;;0.62;100.00
29569;BME280;16501;51.462;14.346;2022-12-20T06:47:34;100556.69;;;1.08;100.00
29569;BME280;16501;51.462;14.346;2022-12-20T06:50:00;100521.31;;;0.70;100.00
29569;BME280;16501;51.462;14.346;2022-12-20T06:52:25;100546.06;;;0.96;100.00
29569;BME280;16501;51.462;14.346;2022-12-20T06:54:51;100548.44;;;0.93;100.00
29569;BME280;16501;51.462;14.346;2022-12-20T06:57:16;100515.41;;;0.72;100.00
29569;BME280;16501;51.462;14.346;2022-12-20T06:59:41;100533.53;;;0.80;100.00
29569;BME280;16501;51.462;14.346;2022-12-20T07:02:09;100566.56;;;1.09;100.00
29569;BME280;16501;51.462;14.346;2022-12-20T07:04:37;100567.75;;;1.01;100.00
29569;BME280;16501;51.462;14.346;2022-12-20T07:07:02;100498.88;;;0.68;100.00
29569;BME280;16501;51.462;14.346;2022-12-20T07:09:28;100517.75;;;0.81;100.00
29569;BME280;16501;51.462;14.346;2022-12-20T07:11:56;100544.53;;;0.91;100.00
29569;BME280;16501;51.462;14.346;2022-12-20T07:14:21;100487.84;;;0.50;100.00
29569;BME280;16501;51.462;14.346;2022-12-20T07:16:47;100505.56;;;0.64;100.00
29569;BME280;16501;51.462;14.346;2022-12-20T07:19:13;100511.44;;;0.73;100.00
29569;BME280;16501;51.462;14.346;2022-12-20T07:21:40;100572.09;;;1.05;100.00
29569;BME280;16501;51.462;14.346;2022-12-20T07:24:05;100542.16;;;0.89;100.00
29569;BME280;16501;51.462;14.346;2022-12-20T07:26:31;100570.13;;;1.02;100.00
29569;BME280;16501;51.462;14.346;2022-12-20T07:28:56;100572.50;;;1.00;100.00
29569;BME280;16501;51.462;14.346;2022-12-20T07:31:22;100580.75;;;1.11;100.00
29569;BME280;16501;51.462;14.346;2022-12-20T07:33:47;100580.78;;;1.04;100.00
29569;BME280;16501;51.462;14.346;2022-12-20T07:36:13;100568.13;;;1.03;100.00
29569;BME280;16501;51.462;14.346;2022-12-20T07:38:40;100554.03;;;0.79;100.00
29569;BME280;16501;51.462;14.346;2022-12-20T07:41:13;100571.34;;;0.98;100.00
29569;BME280;16501;51.462;14.346;2022-12-20T07:43:41;100571.78;;;0.67;100.00
29569;BME280;16501;51.462;14.346;2022-12-20T07:46:08;100571.31;;;0.94;100.00
29569;BME280;16501;51.462;14.346;2022-12-20T07:48:37;100529.59;;;0.74;100.00
29569;BME280;16501;51.462;14.346;2022-12-20T07:51:08;100563.41;;;1.03;100.00
29569;BME280;16501;51.462;14.346;2022-12-20T07:53:39;100563.78;;;1.12;100.00
29569;BME280;16501;51.462;14.346;2022-12-20T07:56:08;100561.09;;;0.94;100.00
29569;BME280;16501;51.462;14.346;2022-12-20T07:58:36;100567.72;;;1.11;100.00
29569;BME280;16501;51.462;14.346;2022-12-20T08:01:03;100544.13;;;0.96;100.00
29569;BME280;16501;51.462;14.346;2022-12-20T08:03:37;100550.00;;;1.02;100.00
29569;BME280;16501;51.462;14.346;2022-12-20T08:06:04;100529.56;;;0.85;100.00
29569;BME280;16501;51.462;14.346;2022-12-20T08:08:34;100563.78;;;1.12;100.00
29569;BME280;16501;51.462;14.346;2022-12-20T08:11:02;100520.13;;;0.82;100.00
29569;BME280;16501;51.462;14.346;2022-12-20T08:13:27;100520.88;;;0.83;100.00
29569;BME280;16501;51.462;14.346;2022-12-20T08:15:53;100499.22;;;0.74;100.00
29569;BME280;16501;51.462;14.346;2022-12-20T08:18:19;100509.09;;;0.79;100.00
29569;BME280;16501;51.462;14.346;2022-12-20T08:20:44;100526.41;;;0.86;100.00
29569;BME280;16501;51.462;14.346;2022-12-20T08:23:10;100539.38;;;0.93;100.00
29569;BME280;16501;51.462;14.346;2022-12-20T08:25:35;100548.78;;;1.13;100.00
29569;BME280;16501;51.462;14.346;2022-12-20T08:28:01;100513.00;;;0.85;100.00
29569;BME280;16501;51.462;14.346;2022-12-20T08:30:29;100524.81;;;0.92;100.00
29569;BME280;16501;51.462;14.346;2022-12-20T08:32:55;100548.03;;;0.99;100.00
29569;BME280;16501;51.462;14.346;2022-12-20T08:35:21;100533.94;;;0.79;100.00
29569;BME280;16501;51.462;14.346;2022-12-20T08:37:46;100562.63;;;0.96;100.00
29569;BME280;16501;51.462;14.346;2022-12-20T08:40:12;100514.22;;;0.66;100.00
29569;BME280;16501;51.462;14.346;2022-12-20T08:42:38;100544.94;;;0.89;100.00
29569;BME280;16501;51.462;14.346;2022-12-20T08:45:04;100506.75;;;0.59;100.00
29569;BME280;16501;51.462;14.346;2022-12-20T08:47:29;100584.34;;;0.93;100.00
29569;BME280;16501;51.462;14.346;2022-12-20T08:49:55;100576.41;;;1.03;100.00
29569;BME280;16501;51.462;14.346;2022-12-20T08:52:20;100545.72;;;0.86;100.00
29569;BME280;16501;51.462;14.346;2022-12-20T08:54:47;100543.72;;;0.90;100.00
29569;BME280;16501;51.462;14.346;2022-12-20T08:57:12;100560.25;;;1.05;100.00
29569;BME280;16501;51.462;14.346;2022-12-20T08:59:38;100532.66;;;0.94;100.00
29569;BME280;16501;51.462;14.346;2022-12-20T09:02:03;100533.09;;;0.82;100.00
29569;BME280;16501;51.462;14.346;2022-12-20T09:04:29;100559.44;;;1.08;100.00
29569;BME280;16501;51.462;14.346;2022-12-20T09:06:55;100544.16;;;0.89;100.00
29569;BME280;16501;51.462;14.346;2022-12-20T09:09:20;100566.56;;;1.05;100.00
29569;BME280;16501;51.462;14.346;2022-12-20T09:11:45;100553.94;;;1.01;100.00
29569;BME280;16501;51.462;14.346;2022-12-20T09:14:12;100509.06;;;0.86;100.00
29569;BME280;16501;51.462;14.346;2022-12-20T09:16:38;100501.97;;;0.78;100.00
29569;BME280;16501;51.462;14.346;2022-12-20T09:19:04;100556.66;;;1.19;100.00
29569;BME280;16501;51.462;14.346;2022-12-20T09:21:30;100581.41;;;1.44;100.00
29569;BME280;16501;51.462;14.346;2022-12-20T09:23:56;100541.66;;;1.16;100.00
29569;BME280;16501;51.462;14.346;2022-12-20T09:26:23;100584.94;;;1.52;100.00
29569;BME280;16501;51.462;14.346;2022-12-20T09:28:49;100587.66;;;1.55;100.00
29569;BME280;16501;51.462;14.346;2022-12-20T09:31:17;100584.88;;;1.62;100.00
29569;BME280;16501;51.462;14.346;2022-12-20T09:33:58;100576.19;;;1.60;100.00
29569;BME280;16501;51.462;14.346;2022-12-20T09:36:25;100579.66;;;1.75;100.00
29569;BME280;16501;51.462;14.346;2022-12-20T09:38:53;100571.00;;;1.69;100.00
29569;BME280;16501;51.462;14.346;2022-12-20T09:41:30;100575.63;;;1.87;100.00
29569;BME280;16501;51.462;14.346;2022-12-20T09:43:57;100551.16;;;1.82;100.00
29569;BME280;16501;51.462;14.346;2022-12-20T09:46:24;100570.16;;;1.80;99.69
29569;BME280;16501;51.462;14.346;2022-12-20T09:48:52;100559.91;;;1.73;99.78
29569;BME280;16501;51.462;14.346;2022-12-20T09:56:47;100587.44;;;1.91;100.00
29569;BME280;16501;51.462;14.346;2022-12-20T09:59:19;100554.38;;;1.73;99.94
29569;BME280;16501;51.462;14.346;2022-12-20T10:01:46;100564.94;;;1.89;100.00
29569;BME280;16501;51.462;14.346;2022-12-20T10:07:11;100577.19;;;1.92;100.00
29569;BME280;16501;51.462;14.346;2022-12-20T10:12:30;100577.94;;;1.96;99.72
29569;BME280;16501;51.462;14.346;2022-12-20T10:15:26;100577.13;;;1.99;99.64
29569;BME280;16501;51.462;14.346;2022-12-20T10:25:59;100544.06;;;1.81;99.84
29569;BME280;16501;51.462;14.346;2022-12-20T10:28:28;100564.88;;;1.96;99.04
29569;BME280;16501;51.462;14.346;2022-12-20T10:31:00;100522.41;;;1.68;99.11
29569;BME280;16501;51.462;14.346;2022-12-20T10:33:29;100536.19;;;1.76;99.10
29569;BME280;16501;51.462;14.346;2022-12-20T10:36:25;100562.13;;;1.96;99.10
29569;BME280;16501;51.462;14.346;2022-12-20T10:38:54;100557.88;;;1.81;99.69
29569;BME280;16501;51.462;14.346;2022-12-20T10:41:25;100556.25;;;1.91;99.37
29569;BME280;16501;51.462;14.346;2022-12-20T10:44:05;100562.94;;;1.93;98.88
29569;BME280;16501;51.462;14.346;2022-12-20T10:46:42;100545.31;;;1.73;98.00
29569;BME280;16501;51.462;14.346;2022-12-20T10:49:31;100553.94;;;1.82;98.63
29569;BME280;16501;51.462;14.346;2022-12-20T10:54:33;100546.81;;;1.81;98.32
29569;BME280;16501;51.462;14.346;2022-12-20T10:57:13;100522.09;;;1.59;98.42
29569;BME280;16501;51.462;14.346;2022-12-20T10:59:46;100544.41;;;1.90;99.13
29569;BME280;16501;51.462;14.346;2022-12-20T11:02:29;100544.00;;;1.88;99.70
29569;BME280;16501;51.462;14.346;2022-12-20T11:07:38;100538.47;;;1.88;100.00
29569;BME280;16501;51.462;14.346;2022-12-20T11:10:22;100537.69;;;1.87;99.32
29569;BME280;16501;51.462;14.346;2022-12-20T11:13:00;100518.75;;;1.82;98.54
29569;BME280;16501;51.462;14.346;2022-12-20T11:15:28;100439.00;;;1.28;98.79
29569;BME280;16501;51.462;14.346;2022-12-20T11:20:46;100468.41;;;1.60;98.29
29569;BME280;16501;51.462;14.346;2022-12-20T11:26:10;100512.75;;;1.95;97.65
29569;BME280;16501;51.462;14.346;2022-12-20T11:31:47;100459.56;;;1.80;97.26
29569;BME280;16501;51.462;14.346;2022-12-20T11:34:22;100477.72;;;2.22;96.66
29569;BME280;16501;51.462;14.346;2022-12-20T11:42:04;100467.66;;;2.01;95.25
29569;BME280;16501;51.462;14.346;2022-12-20T11:53:30;100392.97;;;1.60;95.22
29569;BME280;16501;51.462;14.346;2022-12-20T11:56:02;100439.88;;;1.70;94.67
29569;BME280;16501;51.462;14.346;2022-12-20T12:01:15;100448.09;;;1.81;95.00
29569;BME280;16501;51.462;14.346;2022-12-20T12:03:49;100442.16;;;1.79;95.23
29569;BME280;16501;51.462;14.346;2022-12-20T12:06:24;100384.09;;;1.38;95.71
29569;BME280;16501;51.462;14.346;2022-12-20T12:11:39;100402.63;;;1.82;95.37
29569;BME280;16501;51.462;14.346;2022-12-20T12:14:59;100432.91;;;2.00;94.88
29569;BME280;16501;51.462;14.346;2022-12-20T12:17:06;100399.78;;;1.48;94.40
29569;BME280;16501;51.462;14.346;2022-12-20T12:19:36;100411.88;;;1.65;94.91
29569;BME280;16501;51.462;14.346;2022-12-20T12:22:14;100426.25;;;1.94;94.78
29569;BME280;16501;51.462;14.346;2022-12-20T12:24:49;100398.59;;;1.94;94.68
29569;BME280;16501;51.462;14.346;2022-12-20T12:27:25;100387.63;;;1.83;94.65
29569;BME280;16501;51.462;14.346;2022-12-20T12:29:52;100387.66;;;1.80;94.73
29569;BME280;16501;51.462;14.346;2022-12-20T12:32:38;100430.44;;;2.10;94.67
29569;BME280;16501;51.462;14.346;2022-12-20T12:40:46;100420.19;;;2.06;94.54
29569;BME280;16501;51.462;14.346;2022-12-20T12:46:16;100396.66;;;1.87;94.89
29569;BME280;16501;51.462;14.346;2022-12-20T12:48:59;100426.16;;;2.01;95.15
29569;BME280;16501;51.462;14.346;2022-12-20T12:51:39;100415.09;;;2.01;95.25
29569;BME280;16501;51.462;14.346;2022-12-20T12:56:44;100375.75;;;1.86;95.84
29569;BME280;16501;51.462;14.346;2022-12-20T13:18:16;100331.56;;;1.79;96.04
29569;BME280;16501;51.462;14.346;2022-12-20T13:20:42;100403.16;;;2.12;95.76
29569;BME280;16501;51.462;14.346;2022-12-20T13:25:49;100366.09;;;2.02;96.11
29569;BME280;16501;51.462;14.346;2022-12-20T13:30:45;100324.16;;;1.73;95.56
29569;BME280;16501;51.462;14.346;2022-12-20T13:33:21;100361.28;;;2.10;96.10
29569;BME280;16501;51.462;14.346;2022-12-20T13:35:58;100307.56;;;1.73;95.61
29569;BME280;16501;51.462;14.346;2022-12-20T13:41:37;100370.03;;;2.04;95.36
29569;BME280;16501;51.462;14.346;2022-12-20T13:47:00;100373.94;;;2.07;95.87
29569;BME280;16501;51.462;14.346;2022-12-20T13:49:28;100342.53;;;1.90;95.74
29569;BME280;16501;51.462;14.346;2022-12-20T13:54:42;100376.34;;;2.05;95.30
29569;BME280;16501;51.462;14.346;2022-12-20T13:57:15;100345.09;;;1.70;94.89
29569;BME280;16501;51.462;14.346;2022-12-20T13:59:45;100378.03;;;1.95;95.07
29569;BME280;16501;51.462;14.346;2022-12-20T14:02:18;100307.81;;;1.47;95.24
29569;BME280;16501;51.462;14.346;2022-12-20T14:04:59;100296.94;;;1.29;95.48
29569;BME280;16501;51.462;14.346;2022-12-20T14:07:27;100368.25;;;1.87;95.93
29569;BME280;16501;51.462;14.346;2022-12-20T14:09:56;100370.22;;;1.86;95.41
29569;BME280;16501;51.462;14.346;2022-12-20T14:12:22;100354.13;;;1.78;95.78
29569;BME280;16501;51.462;14.346;2022-12-20T14:14:49;100362.03;;;1.76;95.77
29569;BME280;16501;51.462;14.346;2022-12-20T14:17:26;100323.72;;;1.36;95.57
29569;BME280;16501;51.462;14.346;2022-12-20T14:22:36;100267.44;;;1.19;95.99
29569;BME280;16501;51.462;14.346;2022-12-20T14:25:05;100336.06;;;1.66;95.98
29569;BME280;16501;51.462;14.346;2022-12-20T14:27:34;100314.16;;;1.44;96.17
29569;BME280;16501;51.462;14.346;2022-12-20T14:30:01;100337.22;;;1.68;96.45
29569;BME280;16501;51.462;14.346;2022-12-20T14:32:26;100309.81;;;1.43;97.24
29569;BME280;16501;51.462;14.346;2022-12-20T14:34:53;100309.78;;;1.47;98.64
29569;BME280;16501;51.462;14.346;2022-12-20T14:37:30;100318.09;;;1.47;99.34